Airfield :
LOGIN :

Register | Disclaimer

   EN    FR    IT 

 










Legend :    VFR   Marginal VFR   IFR   Intensive IFR   Very Intensive IFR
Visi :
Ceiling :
>= 8 km
>= 3000ft
5 to 8 km
1000 to 3000 ft
1500m to 5 km
500 to 1000 ft
800 to 1500m
200 to 500 ft
< 800m
< 200 ft
Symbols :   Thunderstorms  Fog  Heavy snow  Heavy precipitations  Wind > 20 kt
SIGMETs :     Misc.  Thunderstorms  Icing  Turbulence  Mountain Waves  Volcanic Ashes






- Airport Elevation : 978 ft
- IATA code : LNZ


LOWL - Linz

CURRENT METAR :
  • 280950Z 28022KT 9999 FEW016 BKN022 03/M00 Q1017 NOSIG

EXPIRED METARs :
  • 280920Z 28024KT 9999 FEW019 BKN022 03/M01 Q1016 NOSIG
  • 280850Z 28025KT 9999 FEW015 SCT020 BKN040 03/00 Q1016 NOSIG
  • 280820Z 28021KT 9999 FEW010 BKN016 BKN022 02/00 Q1015 NOSIG
  • 280750Z 28019KT 9999 -SHRA FEW010 SCT014 BKN020 02/00 Q1015 TEMPO BKN013
  • 280720Z 28021KT 9999 FEW016 BKN019 02/M00 Q1014 TEMPO -SHRASN

TAF TAF LOWL
Valid from the 28 at 06:00 until the 29 at 06:00 UTC


280515Z 2806/2906 27013KT 9999 FEW020 BKN040 TX04/2814Z TNM03/2902Z
TEMPO 2806/2812 28025G35KT -SHRASN
TEMPO 2812/2815 28015G25KT
BECMG 2818/2820 09003KT



MET'MAP, your aeronautical weather chart ! - Copyright ORBIFLY December 2007 - Disclaimer

ORBIFLY MET'MAP TEAM :

Programming & Development : Alexandra Zaïnal
Concept & original design : Baudouin d'Aumeries
Assistance for programming : Marc-Olivier Méhu
Technical & hardware support : Manuel Goepfert

Contact : metmap@orbifly.com




SOURCES & CREDITS :

   NOAA